Emmett Eymard — WCY5116 — position and weather

sailwx.info

Track history (hours):
 
Tides and Currents Weather Stations Pressure Air Temp Water Temp Dewpoint Dewpoint Depression Visibility Wind Speed Wind Dir Waves Ship Positions

Emmett Eymard

Owner: United Tugs, Inc., CUT OFF, LA. More information available from US FCC via Universal Licensing System and Coast Guard Vessel Documentation Center.

Last reported at 2014-Dec-09 04:12 UTC. Time now 2014-Dec-19 06:31 UTC.
Position N 29°26' W 090°43'.
Warning: this ship's position is 10 days out of date.

Length 3 m.

MMSI: 366967780.

Date/timePositionNaut miles runAvg speedWind from/ knotsBaromVisibWave heightAir tempDewpointWater temp
2014-Dec-09 04:12N 29°26' W 090°43'  
2014-Dec-02 07:25N 29°10' W 090°14'4 5.0
2014-Dec-02 06:31N 29°14' W 090°13'6 4.7
2014-Dec-02 05:13N 29°20' W 090°14'40 1.2
2014-Nov-30 20:27N 29°34' W 090°57'4 3.9
2014-Nov-30 19:31N 29°37' W 090°60'3 2.8
2014-Nov-30 18:27N 29°38' W 091°03'0 0.0
2014-Nov-30 17:30N 29°38' W 091°03'0 0.0
2014-Nov-30 16:31N 29°38' W 091°03'0 0.0
2014-Nov-30 15:29N 29°38' W 091°03'2 2.2
2014-Nov-30 14:33N 29°38' W 091°05'2 1.9
2014-Nov-30 13:30N 29°38' W 091°03'0 0.4
2014-Nov-30 12:31N 29°38' W 091°03'3 2.5
2014-Nov-30 11:18N 29°40' W 091°06'3 4.2
2014-Nov-30 10:33N 29°38' W 091°03'0 0.0
2014-Nov-30 03:33N 29°38' W 091°03'3 2.9
2014-Nov-30 02:33N 29°39' W 091°06'  
Track history (hours):
 
Tides and Currents Weather Stations Pressure Air Temp Water Temp Dewpoint Dewpoint Depression Visibility Wind Speed Wind Dir Waves Ship Positions

Emmett Eymard

Owner: United Tugs, Inc., CUT OFF, LA. More information available from US FCC via Universal Licensing System and Coast Guard Vessel Documentation Center.

Last reported at 2014-Dec-09 04:12 UTC. Time now 2014-Dec-19 06:31 UTC.
Position N 29°26' W 090°43'.
Warning: this ship's position is 10 days out of date.

Length 3 m.

MMSI: 366967780.

Date/timePositionNaut miles runAvg speedWind from/ knotsBaromVisibWave heightAir tempDewpointWater temp
2014-Dec-09 04:12N 29°26' W 090°43'  
2014-Dec-02 07:25N 29°10' W 090°14'4 5.0
2014-Dec-02 06:31N 29°14' W 090°13'6 4.7
2014-Dec-02 05:13N 29°20' W 090°14'40 1.2
2014-Nov-30 20:27N 29°34' W 090°57'4 3.9
2014-Nov-30 19:31N 29°37' W 090°60'3 2.8
2014-Nov-30 18:27N 29°38' W 091°03'0 0.0
2014-Nov-30 17:30N 29°38' W 091°03'0 0.0
2014-Nov-30 16:31N 29°38' W 091°03'0 0.0
2014-Nov-30 15:29N 29°38' W 091°03'2 2.2
2014-Nov-30 14:33N 29°38' W 091°05'2 1.9
2014-Nov-30 13:30N 29°38' W 091°03'0 0.4
2014-Nov-30 12:31N 29°38' W 091°03'3 2.5
2014-Nov-30 11:18N 29°40' W 091°06'3 4.2
2014-Nov-30 10:33N 29°38' W 091°03'0 0.0
2014-Nov-30 03:33N 29°38' W 091°03'3 2.9
2014-Nov-30 02:33N 29°39' W 091°06'  

Dump ship's entire track history